createdAt,value
2023-04-30T00:02:21.252Z,20.94
2023-04-30T00:04:50.993Z,21.00
2023-04-30T00:07:21.834Z,20.99
2023-04-30T00:09:53.068Z,21.04
2023-04-30T00:12:23.570Z,21.01
2023-04-30T00:14:53.387Z,20.96
2023-04-30T00:17:23.050Z,20.97
2023-04-30T00:19:53.429Z,20.98
2023-04-30T00:22:23.298Z,20.90
2023-04-30T00:24:53.508Z,20.92
2023-04-30T00:27:23.375Z,20.90
2023-04-30T00:29:53.379Z,20.93
2023-04-30T00:32:23.197Z,20.94
2023-04-30T00:34:52.958Z,20.86
2023-04-30T00:37:22.598Z,20.97
2023-04-30T00:39:52.895Z,20.85
2023-04-30T00:42:22.752Z,20.90
2023-04-30T00:44:52.344Z,20.89
2023-04-30T00:47:22.299Z,20.98
2023-04-30T00:49:52.469Z,21.05
2023-04-30T00:52:22.553Z,21.14
2023-04-30T00:54:55.097Z,21.13
2023-04-30T00:57:24.733Z,21.12
2023-04-30T00:59:54.662Z,21.17
2023-04-30T01:02:24.724Z,21.21
2023-04-30T01:04:54.401Z,21.26
2023-04-30T01:07:24.062Z,21.29
2023-04-30T01:09:54.002Z,21.28
2023-04-30T01:12:44.589Z,21.27
2023-04-30T01:15:35.545Z,21.28
2023-04-30T01:18:10.734Z,21.38
2023-04-30T01:20:46.367Z,21.38
2023-04-30T01:23:15.449Z,21.20
2023-04-30T01:26:02.965Z,21.31
2023-04-30T01:28:32.601Z,21.35
2023-04-30T01:31:02.306Z,21.35
2023-04-30T01:33:32.034Z,21.39
2023-04-30T01:36:21.793Z,21.46
2023-04-30T01:38:59.896Z,21.38
2023-04-30T01:41:47.628Z,21.38
2023-04-30T01:44:39.144Z,21.40
2023-04-30T01:47:49.114Z,21.39
2023-04-30T01:50:18.755Z,21.39
2023-04-30T01:53:00.870Z,21.41
2023-04-30T01:55:37.661Z,21.45
2023-04-30T01:58:12.527Z,21.37
2023-04-30T02:00:42.618Z,21.40
2023-04-30T02:03:12.517Z,21.45
2023-04-30T02:05:42.435Z,21.35
2023-04-30T02:08:12.218Z,21.45
2023-04-30T02:10:41.900Z,21.49
2023-04-30T02:13:11.634Z,21.38
2023-04-30T02:15:41.351Z,21.44
2023-04-30T02:18:11.113Z,21.51
2023-04-30T02:20:40.830Z,21.56
2023-04-30T02:23:11.393Z,21.49
2023-04-30T02:25:41.069Z,21.44
2023-04-30T02:28:10.767Z,21.51
2023-04-30T02:30:40.867Z,21.61
2023-04-30T02:33:13.821Z,21.58
2023-04-30T02:35:43.874Z,21.55
2023-04-30T02:38:13.490Z,21.65
2023-04-30T02:40:44.264Z,21.73
2023-04-30T02:43:14.000Z,21.73
2023-04-30T02:45:43.715Z,21.77
2023-04-30T02:48:13.470Z,21.76
2023-04-30T02:50:43.103Z,21.81
2023-04-30T02:53:12.786Z,21.82
2023-04-30T02:55:42.485Z,21.77
2023-04-30T02:58:12.220Z,21.72
2023-04-30T03:00:41.897Z,21.86
2023-04-30T03:03:11.702Z,21.89
2023-04-30T03:05:41.465Z,21.85
2023-04-30T03:08:11.142Z,21.78
2023-04-30T03:10:40.762Z,21.84
2023-04-30T03:13:10.671Z,21.85
2023-04-30T03:15:40.316Z,21.92
2023-04-30T03:18:10.049Z,21.79
2023-04-30T03:20:39.756Z,21.74
2023-04-30T03:23:09.485Z,21.76
2023-04-30T03:25:39.136Z,21.70
2023-04-30T03:28:08.816Z,21.64
2023-04-30T03:30:38.465Z,21.68
2023-04-30T03:33:10.668Z,21.79
2023-04-30T03:35:40.467Z,21.74
2023-04-30T03:38:10.106Z,21.79
2023-04-30T03:40:39.801Z,21.96
2023-04-30T03:43:09.486Z,21.86
2023-04-30T03:45:39.156Z,21.82
2023-04-30T03:48:08.936Z,21.82
2023-04-30T03:50:38.652Z,21.76
2023-04-30T03:53:08.397Z,21.79
2023-04-30T03:55:38.620Z,21.86
2023-04-30T03:58:08.340Z,21.89
2023-04-30T04:00:38.340Z,22.00
2023-04-30T04:03:08.981Z,22.01
2023-04-30T04:05:38.624Z,21.91
2023-04-30T04:08:09.082Z,21.90
2023-04-30T04:10:38.790Z,21.91
2023-04-30T04:13:08.700Z,21.82
2023-04-30T04:15:38.384Z,21.88
2023-04-30T04:18:10.005Z,21.84
2023-04-30T04:20:39.749Z,21.84
2023-04-30T04:23:09.421Z,21.87
2023-04-30T04:25:40.942Z,21.78
2023-04-30T04:28:10.614Z,21.78
2023-04-30T04:30:41.625Z,21.82
2023-04-30T04:33:12.081Z,21.78
2023-04-30T04:35:42.276Z,21.91
2023-04-30T04:38:12.052Z,21.93
2023-04-30T04:40:41.860Z,21.91
2023-04-30T04:43:11.499Z,21.86
2023-04-30T04:45:42.297Z,21.92
2023-04-30T04:48:12.092Z,21.82
2023-04-30T04:50:42.626Z,21.83
2023-04-30T04:53:12.464Z,21.90
2023-04-30T04:55:42.148Z,21.94
2023-04-30T04:58:11.736Z,21.95
2023-04-30T05:00:41.731Z,21.91
2023-04-30T05:03:11.911Z,21.93
2023-04-30T05:05:41.798Z,21.99
2023-04-30T05:08:11.476Z,21.98
2023-04-30T05:10:41.141Z,21.86
2023-04-30T05:13:10.802Z,21.87
2023-04-30T05:15:40.521Z,21.89
2023-04-30T05:18:10.317Z,21.91
2023-04-30T05:20:40.026Z,22.00
2023-04-30T05:23:09.768Z,21.87
2023-04-30T05:25:39.521Z,21.89
2023-04-30T05:28:09.363Z,21.89
2023-04-30T05:30:39.059Z,21.87
2023-04-30T05:33:08.799Z,21.86
2023-04-30T05:35:38.497Z,21.85
2023-04-30T05:38:08.114Z,21.86
2023-04-30T05:40:37.866Z,21.88
2023-04-30T05:43:07.554Z,21.89
2023-04-30T05:45:37.313Z,21.81
2023-04-30T05:48:07.253Z,21.84
2023-04-30T05:50:36.931Z,21.78
2023-04-30T05:53:06.559Z,21.82
2023-04-30T05:55:36.335Z,21.85
2023-04-30T05:58:05.955Z,21.88
2023-04-30T06:00:35.593Z,21.87
2023-04-30T06:03:05.327Z,21.86
2023-04-30T06:05:35.173Z,21.88
2023-04-30T06:08:04.955Z,21.85
2023-04-30T06:10:34.633Z,21.87
2023-04-30T06:13:04.259Z,21.90
2023-04-30T06:15:33.941Z,21.82
2023-04-30T06:18:03.633Z,21.84
2023-04-30T06:20:33.393Z,21.85
2023-04-30T06:23:05.353Z,21.78
2023-04-30T06:25:35.042Z,21.87
2023-04-30T06:28:04.725Z,21.89
2023-04-30T06:30:34.843Z,21.86
2023-04-30T06:33:04.842Z,21.90
2023-04-30T06:35:34.608Z,21.93
2023-04-30T06:38:04.244Z,21.91
2023-04-30T06:40:33.916Z,21.93
2023-04-30T06:43:03.732Z,21.85
2023-04-30T06:45:33.349Z,21.95
2023-04-30T06:48:03.150Z,21.91
2023-04-30T06:50:32.876Z,22.05
2023-04-30T06:53:02.838Z,22.06
2023-04-30T06:55:32.502Z,22.02
2023-04-30T06:58:02.180Z,21.87
2023-04-30T07:00:31.912Z,21.98
2023-04-30T07:03:06.003Z,21.90
2023-04-30T07:05:35.840Z,21.78
2023-04-30T07:08:05.943Z,21.98
2023-04-30T07:10:35.784Z,21.92
2023-04-30T07:13:05.477Z,21.90
2023-04-30T07:15:35.498Z,22.06
2023-04-30T07:18:05.938Z,21.96
2023-04-30T07:20:35.825Z,21.83
2023-04-30T07:23:05.503Z,21.84
2023-04-30T07:25:35.118Z,21.80
2023-04-30T07:28:04.747Z,21.77
2023-04-30T07:30:35.302Z,21.78
2023-04-30T07:33:04.958Z,21.74
2023-04-30T07:35:34.671Z,21.80
2023-04-30T07:38:04.339Z,21.77
2023-04-30T07:40:35.952Z,21.91
2023-04-30T07:43:06.707Z,21.87
2023-04-30T07:45:36.745Z,21.77
2023-04-30T07:48:06.666Z,21.73
2023-04-30T07:50:36.626Z,21.77
2023-04-30T07:53:10.860Z,21.72
2023-04-30T07:55:40.594Z,21.79
2023-04-30T07:58:10.387Z,21.90
2023-04-30T08:00:40.115Z,21.79
2023-04-30T08:03:10.610Z,21.73
2023-04-30T08:05:40.357Z,21.75
2023-04-30T08:08:10.353Z,21.83
2023-04-30T08:10:40.981Z,21.77
2023-04-30T08:13:10.681Z,21.77
2023-04-30T08:15:41.635Z,21.72
2023-04-30T08:18:11.893Z,21.80
2023-04-30T08:20:41.829Z,21.86
2023-04-30T08:23:11.511Z,21.76
2023-04-30T08:25:41.149Z,21.85
2023-04-30T08:28:10.929Z,21.83
2023-04-30T08:30:41.104Z,21.77
2023-04-30T08:33:10.888Z,21.79
2023-04-30T08:35:40.567Z,21.73
2023-04-30T08:38:10.244Z,21.75
2023-04-30T08:40:51.063Z,21.88
2023-04-30T08:43:21.945Z,21.89
2023-04-30T08:45:51.638Z,21.80
2023-04-30T08:48:21.292Z,21.86
2023-04-30T08:50:50.904Z,21.98
2023-04-30T08:53:22.629Z,21.83
2023-04-30T08:55:52.712Z,21.90
2023-04-30T08:58:22.733Z,21.87
2023-04-30T09:00:52.541Z,21.93
2023-04-30T09:03:25.066Z,22.02
2023-04-30T09:05:54.926Z,21.96
2023-04-30T09:08:46.898Z,21.78
2023-04-30T09:11:30.029Z,21.82
2023-04-30T09:14:04.124Z,21.88
2023-04-30T09:16:48.383Z,21.88
2023-04-30T09:19:31.991Z,21.85
2023-04-30T09:22:02.422Z,21.92
2023-04-30T09:24:32.130Z,21.91
2023-04-30T09:27:02.690Z,21.87
2023-04-30T09:29:41.708Z,21.91
2023-04-30T09:32:11.729Z,22.01
2023-04-30T09:34:41.775Z,21.97
2023-04-30T09:37:12.585Z,21.93
2023-04-30T09:39:56.634Z,21.91
2023-04-30T09:42:26.520Z,21.85
2023-04-30T09:44:56.250Z,22.02
2023-04-30T09:47:25.993Z,21.97
2023-04-30T09:49:56.364Z,21.92
2023-04-30T09:52:26.280Z,21.97
2023-04-30T09:54:56.036Z,22.01
2023-04-30T09:57:26.179Z,21.96
2023-04-30T09:59:56.368Z,22.00
2023-04-30T10:02:27.475Z,21.97
2023-04-30T10:04:58.444Z,21.91
2023-04-30T10:07:29.111Z,21.91
2023-04-30T10:10:12.076Z,21.88
2023-04-30T10:12:52.727Z,21.81
2023-04-30T10:15:41.650Z,21.87
2023-04-30T10:18:32.897Z,21.81
2023-04-30T10:21:04.778Z,21.85
2023-04-30T10:23:34.422Z,21.88
2023-04-30T10:26:04.074Z,21.87
2023-04-30T10:28:35.128Z,21.85
2023-04-30T10:31:04.837Z,21.87
2023-04-30T10:33:36.493Z,21.83
2023-04-30T10:36:08.043Z,21.81
2023-04-30T10:38:37.749Z,21.78
2023-04-30T10:41:09.697Z,21.80
2023-04-30T10:43:39.894Z,21.74
2023-04-30T10:46:10.428Z,21.80
2023-04-30T10:48:40.308Z,21.86
2023-04-30T10:51:09.976Z,21.84
2023-04-30T10:53:41.742Z,21.78
2023-04-30T10:56:11.512Z,21.83
2023-04-30T10:58:42.046Z,21.84
2023-04-30T11:01:12.412Z,21.81
2023-04-30T11:04:05.485Z,21.84
2023-04-30T11:06:56.316Z,21.78
2023-04-30T11:09:45.676Z,21.78
2023-04-30T11:12:16.986Z,21.83
2023-04-30T11:14:47.605Z,21.83
2023-04-30T11:17:25.083Z,21.84
2023-04-30T11:19:55.618Z,21.84
2023-04-30T11:22:26.238Z,21.83
2023-04-30T11:25:01.662Z,21.81
2023-04-30T11:27:32.968Z,21.78
2023-04-30T11:30:02.884Z,21.80
2023-04-30T11:32:36.789Z,21.79
2023-04-30T11:35:07.141Z,21.79
2023-04-30T11:37:42.062Z,21.79
2023-04-30T11:40:12.916Z,21.79
2023-04-30T11:42:46.386Z,21.77
2023-04-30T11:45:20.208Z,21.76
2023-04-30T11:47:51.307Z,21.75
2023-04-30T11:50:29.043Z,21.72
2023-04-30T11:52:59.716Z,21.71
2023-04-30T11:55:30.077Z,21.64
2023-04-30T11:58:01.421Z,21.60
2023-04-30T12:00:31.946Z,21.56
2023-04-30T12:03:05.058Z,21.60
2023-04-30T12:05:34.779Z,21.64
2023-04-30T12:08:08.384Z,21.67
2023-04-30T12:10:38.452Z,21.65
2023-04-30T12:13:08.085Z,21.70
2023-04-30T12:15:38.701Z,21.61
2023-04-30T12:18:15.379Z,21.56
2023-04-30T12:20:45.089Z,21.55
2023-04-30T12:23:14.708Z,21.51
2023-04-30T12:25:47.289Z,21.53
2023-04-30T12:28:17.039Z,21.50
2023-04-30T12:30:46.787Z,21.49
2023-04-30T12:33:17.042Z,21.51
2023-04-30T12:35:46.829Z,21.53
2023-04-30T12:38:20.078Z,21.47
2023-04-30T12:40:53.044Z,21.48
2023-04-30T12:43:22.669Z,21.45
2023-04-30T12:45:53.605Z,21.47
2023-04-30T12:48:29.434Z,21.46
2023-04-30T12:51:00.474Z,21.20
2023-04-30T12:53:30.400Z,21.31
2023-04-30T12:56:16.997Z,21.23
2023-04-30T12:58:48.908Z,21.27
2023-04-30T13:01:23.213Z,21.33
2023-04-30T13:03:54.179Z,21.34
2023-04-30T13:06:25.107Z,21.33
2023-04-30T13:08:58.518Z,21.31
2023-04-30T13:11:28.906Z,21.37
2023-04-30T13:13:58.638Z,21.46
2023-04-30T13:16:28.852Z,21.51
2023-04-30T13:18:58.595Z,21.55
2023-04-30T13:21:29.395Z,21.54
2023-04-30T13:26:29.177Z,21.53
2023-04-30T13:28:58.827Z,21.55
2023-04-30T13:31:28.757Z,21.52
2023-04-30T13:33:58.446Z,21.57
2023-04-30T13:36:28.716Z,21.48
2023-04-30T13:38:59.063Z,21.47
2023-04-30T13:41:28.866Z,21.45
2023-04-30T13:43:58.613Z,21.38
2023-04-30T13:46:28.386Z,21.33
2023-04-30T13:48:58.521Z,21.34
2023-04-30T13:51:29.406Z,21.31
2023-04-30T13:53:59.094Z,21.29
2023-04-30T13:56:28.820Z,21.28
2023-04-30T13:58:58.498Z,21.26
2023-04-30T14:01:28.522Z,21.23
2023-04-30T14:03:58.371Z,21.25
2023-04-30T14:06:28.070Z,21.29
2023-04-30T14:08:57.846Z,21.30
2023-04-30T14:11:29.119Z,21.33
2023-04-30T14:13:58.965Z,21.34
2023-04-30T14:16:28.977Z,21.28
2023-04-30T14:18:58.731Z,21.26
2023-04-30T14:21:30.273Z,21.18
2023-04-30T14:23:59.898Z,21.23
2023-04-30T14:26:29.642Z,21.27
2023-04-30T14:28:59.896Z,21.29
2023-04-30T14:31:29.549Z,21.30
2023-04-30T14:33:59.359Z,21.31
2023-04-30T14:36:29.168Z,21.35
2023-04-30T14:38:58.860Z,21.40
2023-04-30T14:41:28.536Z,21.36
2023-04-30T14:43:58.165Z,21.38
2023-04-30T14:46:27.932Z,21.30
2023-04-30T14:48:58.040Z,21.27
2023-04-30T14:51:27.799Z,21.26
2023-04-30T14:53:57.744Z,21.26
2023-04-30T14:56:27.454Z,21.15
2023-04-30T14:58:57.170Z,21.12
2023-04-30T15:01:28.510Z,21.17
2023-04-30T15:03:58.779Z,21.13
2023-04-30T15:06:29.042Z,21.13
2023-04-30T15:08:58.673Z,21.12
2023-04-30T15:11:28.415Z,21.10
2023-04-30T15:13:58.165Z,21.11
2023-04-30T15:16:27.879Z,21.12
2023-04-30T15:18:57.604Z,21.05
2023-04-30T15:21:28.173Z,21.15
2023-04-30T15:23:57.853Z,21.09
2023-04-30T15:26:28.664Z,21.12
2023-04-30T15:28:58.740Z,21.02
2023-04-30T15:31:28.439Z,21.06
2023-04-30T15:33:58.258Z,21.05
2023-04-30T15:36:28.147Z,21.07
2023-04-30T15:38:57.867Z,21.07
2023-04-30T15:41:27.538Z,21.05
2023-04-30T15:43:57.277Z,21.00
2023-04-30T15:46:27.188Z,21.12
2023-04-30T15:48:57.002Z,21.07
2023-04-30T15:51:26.762Z,21.05
2023-04-30T15:53:56.447Z,21.07
2023-04-30T15:56:28.093Z,21.11
2023-04-30T15:58:57.768Z,21.15
2023-04-30T16:01:27.540Z,21.16
2023-04-30T16:03:58.693Z,21.08
2023-04-30T16:06:30.449Z,21.11
2023-04-30T16:09:00.304Z,21.04
2023-04-30T16:11:29.983Z,21.03
2023-04-30T16:13:59.599Z,21.03
2023-04-30T16:16:30.056Z,20.97
2023-04-30T16:18:59.745Z,21.03
2023-04-30T16:21:30.711Z,21.04
2023-04-30T16:24:00.376Z,21.00
2023-04-30T16:26:30.209Z,20.99
2023-04-30T16:28:59.872Z,21.01
2023-04-30T16:31:29.868Z,20.97
2023-04-30T16:33:59.574Z,20.92
2023-04-30T16:36:29.576Z,20.94
2023-04-30T16:38:59.481Z,20.89
2023-04-30T16:41:29.177Z,20.87
2023-04-30T16:43:58.875Z,20.92
2023-04-30T16:46:29.329Z,20.90
2023-04-30T16:48:59.210Z,20.86
2023-04-30T16:51:28.894Z,20.84
2023-04-30T16:53:58.587Z,20.88
2023-04-30T16:56:28.556Z,20.86
2023-04-30T16:58:58.349Z,20.85
2023-04-30T17:01:28.288Z,20.88
2023-04-30T17:03:58.097Z,20.91
2023-04-30T17:06:27.996Z,20.92
2023-04-30T17:08:57.739Z,20.91
2023-04-30T17:11:27.478Z,20.87
2023-04-30T17:13:57.165Z,20.86
2023-04-30T17:16:26.839Z,20.87
2023-04-30T17:18:56.612Z,20.87
2023-04-30T17:21:26.291Z,20.85
2023-04-30T17:23:55.988Z,20.86
2023-04-30T17:26:26.523Z,20.82
2023-04-30T17:28:56.126Z,20.85
2023-04-30T17:31:25.790Z,20.87
2023-04-30T17:33:55.735Z,20.87
2023-04-30T17:36:26.441Z,20.90
2023-04-30T17:38:57.924Z,20.83
2023-04-30T17:41:27.830Z,20.84
2023-04-30T17:43:57.457Z,20.84
2023-04-30T17:46:27.155Z,20.84
2023-04-30T17:48:56.805Z,20.81
2023-04-30T17:51:26.531Z,20.80
2023-04-30T17:53:56.792Z,20.81
2023-04-30T17:56:26.509Z,20.82
2023-04-30T17:58:57.442Z,20.84
2023-04-30T18:01:27.653Z,20.86
2023-04-30T18:03:57.490Z,20.87
2023-04-30T18:06:27.680Z,20.82
2023-04-30T18:08:57.356Z,20.89
2023-04-30T18:11:27.331Z,20.88
2023-04-30T18:14:13.083Z,20.67
2023-04-30T18:16:42.900Z,20.81
2023-04-30T18:19:12.760Z,20.76
2023-04-30T18:21:42.504Z,20.80
2023-04-30T18:24:12.398Z,20.75
2023-04-30T18:26:42.080Z,20.80
2023-04-30T18:29:11.823Z,20.76
2023-04-30T18:31:41.643Z,20.74
2023-04-30T18:34:11.423Z,20.73
2023-04-30T18:36:46.528Z,20.77
2023-04-30T18:39:16.252Z,20.74
2023-04-30T18:41:46.270Z,20.75
2023-04-30T18:44:15.868Z,20.76
2023-04-30T18:46:45.590Z,20.73
2023-04-30T18:49:15.493Z,20.72
2023-04-30T18:51:45.164Z,20.81
2023-04-30T18:54:15.597Z,20.71
2023-04-30T18:56:46.513Z,20.76
2023-04-30T18:59:16.460Z,20.71
2023-04-30T19:01:46.141Z,20.73
2023-04-30T19:04:17.444Z,20.73
2023-04-30T19:06:49.807Z,20.70
2023-04-30T19:09:19.694Z,20.73
2023-04-30T19:11:50.503Z,20.70
2023-04-30T19:14:20.190Z,20.67
2023-04-30T19:16:49.952Z,20.70
2023-04-30T19:19:19.699Z,20.73
2023-04-30T19:21:49.391Z,20.69
2023-04-30T19:24:19.093Z,20.69
2023-04-30T19:26:48.787Z,20.71
2023-04-30T19:29:18.614Z,20.74
2023-04-30T19:31:48.444Z,20.71
2023-04-30T19:34:18.298Z,20.63
2023-04-30T19:36:48.035Z,20.61
2023-04-30T19:39:17.962Z,20.64
2023-04-30T19:41:47.878Z,20.61
2023-04-30T19:44:21.472Z,20.61
2023-04-30T19:46:51.166Z,20.71
2023-04-30T19:49:20.776Z,20.64
2023-04-30T19:51:50.422Z,20.64
2023-04-30T19:54:20.473Z,20.66
2023-04-30T19:56:54.154Z,20.63
2023-04-30T19:59:23.897Z,20.61
2023-04-30T20:01:54.974Z,20.60
2023-04-30T20:04:24.672Z,20.62
2023-04-30T20:06:58.364Z,20.62
2023-04-30T20:09:28.085Z,20.56
2023-04-30T20:11:57.846Z,20.55
2023-04-30T20:14:27.752Z,20.51
2023-04-30T20:16:58.034Z,20.55
2023-04-30T20:19:28.069Z,20.57
2023-04-30T20:21:57.686Z,20.54
2023-04-30T20:24:27.306Z,20.50
2023-04-30T20:26:57.005Z,20.50
2023-04-30T20:29:27.008Z,20.48
2023-04-30T20:31:57.017Z,20.45
2023-04-30T20:34:27.100Z,20.48
2023-04-30T20:36:56.849Z,20.46
2023-04-30T20:39:27.192Z,20.48
2023-04-30T20:41:56.854Z,20.47
2023-04-30T20:44:28.310Z,20.48
2023-04-30T20:46:58.040Z,20.56
2023-04-30T20:49:28.596Z,20.45
2023-04-30T20:51:58.195Z,20.48
2023-04-30T20:54:28.410Z,20.45
2023-04-30T20:56:58.101Z,20.53
2023-04-30T20:59:27.815Z,20.52
2023-04-30T21:01:57.574Z,20.48
2023-04-30T21:04:27.229Z,20.50
2023-04-30T21:06:57.128Z,20.47
2023-04-30T21:09:26.889Z,20.43
2023-04-30T21:11:56.664Z,20.49
2023-04-30T21:14:26.348Z,20.47
2023-04-30T21:16:56.093Z,20.40
2023-04-30T21:19:26.324Z,20.49
2023-04-30T21:21:55.962Z,20.42
2023-04-30T21:24:25.870Z,20.49
2023-04-30T21:26:55.564Z,20.40
2023-04-30T21:29:25.755Z,20.46
2023-04-30T21:31:57.625Z,20.47
2023-04-30T21:34:27.342Z,20.40
2023-04-30T21:36:57.041Z,20.49
2023-04-30T21:39:26.784Z,20.43
2023-04-30T21:41:59.322Z,20.54
2023-04-30T21:44:28.988Z,20.44
2023-04-30T21:46:58.661Z,20.43
2023-04-30T21:49:28.594Z,20.47
2023-04-30T21:51:58.374Z,20.38
2023-04-30T21:54:27.962Z,20.42
2023-04-30T21:56:57.572Z,20.46
2023-04-30T21:59:27.175Z,20.38
2023-04-30T22:01:56.867Z,20.38
2023-04-30T22:04:27.681Z,20.40
2023-04-30T22:06:57.326Z,20.44
2023-04-30T22:09:27.011Z,20.49
2023-04-30T22:11:56.676Z,20.46
2023-04-30T22:14:26.329Z,20.43
2023-04-30T22:16:56.241Z,20.48
2023-04-30T22:19:26.045Z,20.47
2023-04-30T22:21:55.712Z,20.43
2023-04-30T22:24:25.425Z,20.46
2023-04-30T22:26:55.550Z,20.43
2023-04-30T22:29:25.743Z,20.41
2023-04-30T22:31:55.433Z,20.47
2023-04-30T22:34:35.814Z,20.43
2023-04-30T22:37:05.992Z,20.47
2023-04-30T22:39:35.698Z,20.51
2023-04-30T22:42:06.383Z,20.40
2023-04-30T22:44:36.037Z,20.46
2023-04-30T22:47:05.889Z,20.49
2023-04-30T22:49:35.571Z,20.44
2023-04-30T22:52:06.002Z,20.46
2023-04-30T22:54:36.961Z,20.43
2023-04-30T22:57:06.583Z,20.44
2023-04-30T22:59:36.239Z,20.43
2023-04-30T23:02:08.708Z,20.43
2023-04-30T23:04:38.746Z,20.50
2023-04-30T23:07:08.608Z,20.52
2023-04-30T23:09:38.195Z,20.45
2023-04-30T23:12:08.102Z,20.52
2023-04-30T23:14:37.745Z,20.53
2023-04-30T23:17:07.838Z,20.51
2023-04-30T23:19:37.601Z,20.48
2023-04-30T23:22:07.426Z,20.49
2023-04-30T23:24:37.527Z,20.48
2023-04-30T23:27:07.188Z,20.51
2023-04-30T23:29:37.001Z,20.54
2023-04-30T23:32:07.287Z,20.53
2023-04-30T23:34:37.062Z,20.49
2023-04-30T23:37:09.708Z,20.52
2023-04-30T23:39:39.378Z,20.48
2023-04-30T23:42:09.583Z,20.49
2023-04-30T23:44:39.418Z,20.49
2023-04-30T23:47:12.414Z,20.60
2023-04-30T23:49:44.697Z,20.57
2023-04-30T23:52:15.989Z,20.59
2023-04-30T23:54:45.658Z,20.59
2023-04-30T23:57:15.423Z,20.58
2023-04-30T23:59:45.149Z,20.67
